Coventry/Coundon, United Kingdom

4:50 PM BST on April 25, 2017 (GMT +0100)
Earlsdon | | Change Station

Elev 335 ft 52.40 °N, 1.54 °W | Updated 1 second ago

Rain
Rain
43.9 °F
Feels Like 44 °F
N
2.2
Wind Variable Wind from ESE
Gusts 5.4 mph

Today
High -- | Low -- °F
--% Chance of Precip.
Yesterday
High -- | Low -- °F
Precip. -- in
Pressure 29.92 in
Visibility 6.2 miles
Clouds Few 3000 ft
Scattered Clouds 3500 ft
Scattered Clouds 4500 ft
Windchill 44 °F
Dew Point 34 °F
Humidity 69%
Rainfall 0.00 in
Snow Depth Not available.
5:46 AM 8:22 PM
Waning Crescent, 1% visible
METAR EGBE 251520Z 32010KT 280V360 9999 VCSH FEW030 SCT035CB SCT045 10/00 Q1013
Pressure 29.92 in
Visibility 6.2 miles
Clouds Few 3000 ft
Scattered Clouds 3500 ft
Scattered Clouds 4500 ft
Windchill 44 °F
Dew Point 34 °F
Humidity 69%
Rainfall 0.00 in
Snow Depth Not available.
5:46 AM 8:22 PM
Waning Crescent, 1% visible
METAR EGBE 251520Z 32010KT 280V360 9999 VCSH FEW030 SCT035CB SCT045 10/00 Q1013

Get Severe Weather Alerts

Thanks for signing up!

Be on the lookout for a verification email in your inbox.

You'll start receiving the daily forecast at 8 AM.

×

10-Day Weather Forecast

×

Almanac

Astronomy

Apr. 25, 2017 Rise Set
Actual Time
Civil Twilight
Nautical Twilight
Astronomical Twilight
Moon
Length of Visible Light
Length of Day
Tomorrow will be .
, % of the Moon is Illuminated

Today's Extremes

Country Highs Country Lows

Community

WunderPhotos

WunderBlog® & News

Nearby

Air Quality

  Air Quality AQ Index Pollutant
Not available.

Snow Depth

Station Depth Elevation

Earthquake Activity

City Distance Mag. Time & Date
Minimum magnitude displayed is 2.5.

Coastal Water Temperatures

Place Temperature

Stations

Nearby Weather Stations

Station Location Temp. Windchill Dew Point Humidity Wind Precip. Elev Updated Type